Airport Name : San Sebastian

Other Name : San Sebastian

ICAO : LESO

IATA : EAS

FAA :

Latitude : 43.356519

Longitude : -1.790611

Country : Spain

Local Date and Time : 19 Jul 2024 00:48

 

TAF (Terminal Aerodrome Forecast)

TAF LESO 181700Z 1818/1918 27009KT 9999 FEW010 TX26/1913Z TN20/1905Z PROB40 TEMPO 1819/1908 BKN010 PROB30 TEMPO 1822/1907 3000 BR BKN005 PROB30 TEMPO 1908/1912 BKN010 PROB30 1909/1916 36010KT

 

METAR (METeorological Aerodrome Report)

LESO 182230Z AUTO 25004KT 210V320 9999 -RA BKN012 BKN017 22/20 Q1020

LESO 182200Z AUTO 24006KT 160V300 9999 BKN013 23/20 Q1020

LESO 182130Z AUTO 25006KT 200V330 9999 BKN012 23/20 Q1020

LESO 182100Z AUTO 24006KT 190V280 9999 BKN012 OVC018 23/20 Q1020

LESO 182030Z AUTO 25004KT 190V300 9999 SCT010 OVC017 23/20 Q1019

LESO 182000Z AUTO 24005KT 180V300 9999 SCT015 OVC021 23/20 Q1019

LESO 181930Z 25004KT 150V300 9999 SCT011 BKN020 23/20 Q1019

LESO 181900Z 26004KT 200V310 9999 SCT012 BKN020 23/20 Q1019